createdAt,value
2022-11-27T00:01:32.405Z,4.47
2022-11-27T00:04:00.366Z,4.22
2022-11-27T00:06:29.546Z,4.35
2022-11-27T00:08:58.872Z,3.90
2022-11-27T00:11:28.172Z,3.80
2022-11-27T00:13:56.500Z,3.90
2022-11-27T00:16:25.959Z,3.70
2022-11-27T00:18:54.191Z,3.65
2022-11-27T00:21:24.812Z,3.60
2022-11-27T00:23:54.201Z,4.07
2022-11-27T00:26:22.764Z,3.00
2022-11-27T00:28:51.101Z,3.13
2022-11-27T00:31:21.692Z,3.67
2022-11-27T00:33:49.538Z,3.88
2022-11-27T00:36:17.764Z,3.90
2022-11-27T00:38:45.740Z,3.28
2022-11-27T00:41:20.203Z,3.15
2022-11-27T00:43:48.278Z,3.03
2022-11-27T00:46:26.828Z,2.92
2022-11-27T00:48:57.478Z,3.03
2022-11-27T00:51:25.896Z,3.00
2022-11-27T00:53:54.969Z,3.42
2022-11-27T00:56:28.118Z,3.45
2022-11-27T00:58:56.317Z,3.10
2022-11-27T01:01:27.670Z,3.05
2022-11-27T01:03:57.553Z,2.90
2022-11-27T01:06:26.262Z,3.03
2022-11-27T01:08:54.084Z,3.85
2022-11-27T01:11:31.082Z,3.60
2022-11-27T01:14:02.249Z,3.38
2022-11-27T01:16:32.933Z,3.55
2022-11-27T01:19:01.826Z,3.10
2022-11-27T01:21:32.499Z,3.20
2022-11-27T01:24:00.992Z,3.45
2022-11-27T01:26:29.327Z,3.20
2022-11-27T01:28:59.914Z,3.15
2022-11-27T01:31:31.523Z,3.05
2022-11-27T01:34:02.202Z,2.88
2022-11-27T01:36:31.151Z,2.72
2022-11-27T01:38:59.650Z,3.15
2022-11-27T01:41:30.830Z,2.67
2022-11-27T01:44:24.602Z,3.55
2022-11-27T01:47:05.264Z,3.17
2022-11-27T01:49:34.652Z,4.25
2022-11-27T01:52:10.283Z,3.25
2022-11-27T01:55:23.265Z,3.40
2022-11-27T01:58:11.658Z,4.18
2022-11-27T02:00:39.854Z,3.40
2022-11-27T02:03:07.813Z,3.40
2022-11-27T02:05:35.778Z,3.67
2022-11-27T02:08:08.534Z,4.40
2022-11-27T02:11:08.927Z,3.85
2022-11-27T02:13:55.326Z,3.65
2022-11-27T02:16:44.331Z,4.13
2022-11-27T02:19:34.544Z,3.90
2022-11-27T02:22:15.873Z,4.10
2022-11-27T02:24:52.944Z,3.13
2022-11-27T02:27:26.686Z,4.22
2022-11-27T02:29:57.599Z,4.22
2022-11-27T02:32:34.437Z,3.90
2022-11-27T02:35:21.503Z,3.85
2022-11-27T02:37:59.155Z,3.63
2022-11-27T02:40:52.319Z,3.03
2022-11-27T02:43:34.252Z,3.45
2022-11-27T02:48:49.485Z,3.20
2022-11-27T02:51:21.117Z,3.55
2022-11-27T02:53:58.478Z,3.63
2022-11-27T02:56:28.390Z,3.80
2022-11-27T02:58:58.047Z,3.70
2022-11-27T03:01:31.767Z,3.33
2022-11-27T03:04:01.239Z,3.35
2022-11-27T03:06:34.834Z,3.60
2022-11-27T03:09:14.154Z,3.95
2022-11-27T03:11:42.191Z,4.07
2022-11-27T03:14:11.538Z,3.15
2022-11-27T03:17:09.349Z,3.38
2022-11-27T03:20:03.864Z,3.35
2022-11-27T03:22:31.945Z,3.40
2022-11-27T03:25:00.255Z,3.78
2022-11-27T03:27:34.930Z,3.25
2022-11-27T03:30:05.807Z,3.65
2022-11-27T03:32:34.422Z,3.03
2022-11-27T03:35:02.394Z,4.05
2022-11-27T03:37:30.524Z,4.07
2022-11-27T03:39:58.585Z,3.38
2022-11-27T03:42:49.042Z,3.85
2022-11-27T03:45:40.717Z,3.78
2022-11-27T03:48:36.640Z,3.88
2022-11-27T03:51:04.453Z,4.30
2022-11-27T03:53:38.809Z,4.47
2022-11-27T03:56:10.357Z,4.20
2022-11-27T03:58:39.332Z,3.85
2022-11-27T04:01:11.516Z,3.85
2022-11-27T04:03:39.558Z,4.15
2022-11-27T04:06:07.477Z,4.22
2022-11-27T04:08:35.361Z,4.07
2022-11-27T04:11:03.278Z,4.05
2022-11-27T04:13:31.101Z,3.45
2022-11-27T04:16:02.304Z,4.13
2022-11-27T04:18:30.405Z,4.50
2022-11-27T04:20:58.712Z,4.13
2022-11-27T04:23:26.622Z,3.38
2022-11-27T04:25:54.482Z,5.35
2022-11-27T04:28:22.419Z,4.53
2022-11-27T04:30:55.054Z,4.88
2022-11-27T04:33:23.626Z,4.38
2022-11-27T04:35:51.976Z,3.67
2022-11-27T04:38:20.857Z,4.40
2022-11-27T04:40:48.759Z,3.92
2022-11-27T04:43:16.580Z,4.38
2022-11-27T04:45:44.648Z,4.47
2022-11-27T04:48:12.539Z,4.30
2022-11-27T04:50:40.743Z,4.47
2022-11-27T04:53:08.435Z,4.80
2022-11-27T04:55:36.500Z,4.70
2022-11-27T04:58:04.750Z,4.63
2022-11-27T05:00:32.709Z,4.63
2022-11-27T05:03:00.749Z,5.13
2022-11-27T05:05:28.762Z,4.63
2022-11-27T05:07:56.745Z,4.70
2022-11-27T05:10:24.847Z,4.78
2022-11-27T05:12:52.716Z,3.80
2022-11-27T05:15:20.539Z,4.68
2022-11-27T05:17:48.276Z,4.70
2022-11-27T05:20:16.161Z,3.72
2022-11-27T05:22:45.017Z,5.18
2022-11-27T05:25:12.999Z,4.57
2022-11-27T05:27:40.744Z,4.18
2022-11-27T05:30:09.291Z,4.00
2022-11-27T05:32:37.365Z,3.58
2022-11-27T05:35:05.435Z,4.30
2022-11-27T05:37:33.353Z,3.50
2022-11-27T05:40:01.233Z,3.65
2022-11-27T05:42:28.940Z,3.90
2022-11-27T05:44:58.429Z,4.13
2022-11-27T05:47:26.871Z,4.43
2022-11-27T05:49:55.012Z,4.22
2022-11-27T05:52:22.775Z,3.55
2022-11-27T05:54:50.573Z,4.13
2022-11-27T05:57:18.262Z,4.07
2022-11-27T05:59:46.151Z,4.28
2022-11-27T06:02:20.131Z,4.35
2022-11-27T06:04:50.680Z,4.13
2022-11-27T06:07:18.809Z,4.88
2022-11-27T06:09:46.652Z,4.57
2022-11-27T06:12:15.103Z,4.70
2022-11-27T06:14:43.154Z,3.38
2022-11-27T06:17:11.519Z,3.30
2022-11-27T06:19:39.248Z,3.22
2022-11-27T06:22:07.105Z,3.97
2022-11-27T06:24:35.083Z,3.75
2022-11-27T06:27:02.976Z,4.30
2022-11-27T06:29:30.971Z,3.80
2022-11-27T06:31:58.853Z,4.20
2022-11-27T06:34:26.647Z,3.80
2022-11-27T06:36:54.484Z,3.72
2022-11-27T06:39:22.456Z,3.80
2022-11-27T06:41:50.221Z,3.90
2022-11-27T06:44:18.110Z,3.72
2022-11-27T06:46:45.948Z,4.55
2022-11-27T06:49:13.732Z,3.33
2022-11-27T06:51:41.549Z,3.53
2022-11-27T06:54:09.930Z,3.72
2022-11-27T06:56:37.876Z,3.72
2022-11-27T06:59:05.741Z,3.80
2022-11-27T07:01:34.613Z,4.10
2022-11-27T07:04:02.524Z,3.50
2022-11-27T07:06:30.422Z,4.13
2022-11-27T07:08:58.439Z,3.75
2022-11-27T07:11:28.629Z,3.00
2022-11-27T07:13:58.711Z,3.47
2022-11-27T07:16:27.260Z,3.55
2022-11-27T07:18:57.866Z,3.30
2022-11-27T07:21:26.281Z,4.25
2022-11-27T07:23:54.404Z,3.55
2022-11-27T07:26:24.356Z,4.05
2022-11-27T07:28:52.539Z,3.88
2022-11-27T07:31:26.806Z,4.18
2022-11-27T07:33:55.118Z,3.90
2022-11-27T07:36:31.055Z,3.55
2022-11-27T07:38:58.906Z,4.80
2022-11-27T07:41:32.124Z,4.57
2022-11-27T07:44:04.786Z,4.40
2022-11-27T07:46:32.937Z,4.33
2022-11-27T07:49:01.169Z,4.80
2022-11-27T07:51:29.523Z,4.28
2022-11-27T07:53:57.477Z,4.40
2022-11-27T07:56:25.695Z,4.22
2022-11-27T07:58:53.709Z,4.57
2022-11-27T08:01:22.493Z,4.60
2022-11-27T08:03:50.384Z,5.32
2022-11-27T08:06:20.636Z,4.85
2022-11-27T08:08:49.125Z,5.35
2022-11-27T08:11:22.772Z,5.57
2022-11-27T08:13:51.258Z,5.53
2022-11-27T08:16:19.305Z,5.50
2022-11-27T08:18:47.121Z,5.45
2022-11-27T08:21:15.131Z,5.50
2022-11-27T08:23:43.091Z,6.55
2022-11-27T08:26:12.372Z,6.53
2022-11-27T08:28:40.766Z,6.63
2022-11-27T08:31:11.124Z,6.05
2022-11-27T08:33:39.281Z,6.15
2022-11-27T08:36:10.574Z,5.93
2022-11-27T08:38:40.664Z,6.70
2022-11-27T08:41:09.278Z,4.97
2022-11-27T08:43:37.330Z,5.13
2022-11-27T08:46:06.532Z,5.20
2022-11-27T08:48:34.672Z,4.55
2022-11-27T08:51:07.386Z,4.57
2022-11-27T08:53:37.534Z,5.15
2022-11-27T08:56:11.580Z,4.57
2022-11-27T08:58:41.391Z,4.65
2022-11-27T09:01:18.213Z,4.97
2022-11-27T09:03:46.627Z,5.07
2022-11-27T09:06:17.482Z,4.53
2022-11-27T09:08:45.980Z,4.57
2022-11-27T09:11:15.602Z,5.03
2022-11-27T09:13:44.118Z,4.32
2022-11-27T09:16:14.319Z,4.05
2022-11-27T09:18:44.033Z,4.40
2022-11-27T09:21:13.588Z,3.97
2022-11-27T09:23:41.647Z,4.30
2022-11-27T09:26:12.199Z,4.20
2022-11-27T09:28:41.082Z,4.00
2022-11-27T09:31:10.949Z,3.92
2022-11-27T09:33:40.029Z,4.15
2022-11-27T09:36:10.489Z,3.60
2022-11-27T09:38:39.118Z,3.73
2022-11-27T09:41:33.962Z,4.25
2022-11-27T09:44:06.985Z,3.92
2022-11-27T09:46:40.351Z,4.03
2022-11-27T09:49:12.298Z,4.47
2022-11-27T09:51:54.285Z,4.00
2022-11-27T09:54:24.146Z,3.47
2022-11-27T09:56:54.258Z,3.33
2022-11-27T09:59:39.419Z,3.88
2022-11-27T10:02:18.752Z,3.38
2022-11-27T10:05:12.319Z,2.63
2022-11-27T10:08:06.098Z,3.10
2022-11-27T10:10:45.120Z,2.45
2022-11-27T10:13:44.606Z,2.85
2022-11-27T10:16:42.934Z,3.53
2022-11-27T10:19:46.928Z,2.35
2022-11-27T10:22:37.547Z,3.15
2022-11-27T10:25:26.364Z,3.47
2022-11-27T10:28:07.253Z,3.65
2022-11-27T10:30:39.713Z,3.00
2022-11-27T10:33:18.962Z,5.03
2022-11-27T10:35:49.274Z,3.20
2022-11-27T10:38:26.934Z,3.42
2022-11-27T10:41:41.950Z,3.03
2022-11-27T10:44:25.736Z,2.65
2022-11-27T10:46:57.646Z,3.40
2022-11-27T10:49:25.376Z,3.75
2022-11-27T10:51:53.661Z,3.50
2022-11-27T10:54:32.129Z,3.42
2022-11-27T10:57:37.146Z,3.83
2022-11-27T11:00:28.075Z,3.05
2022-11-27T11:03:07.438Z,4.00
2022-11-27T11:06:18.641Z,4.00
2022-11-27T11:08:26.492Z,3.13
2022-11-27T11:10:58.652Z,10.07
2022-11-27T11:13:30.813Z,3.72
2022-11-27T11:16:04.854Z,3.97
2022-11-27T11:18:43.925Z,3.05
2022-11-27T11:21:25.257Z,2.92
2022-11-27T11:24:06.481Z,3.22
2022-11-27T11:26:45.716Z,2.33
2022-11-27T11:29:22.769Z,3.38
2022-11-27T11:31:50.632Z,2.72
2022-11-27T11:34:24.667Z,3.72
2022-11-27T11:37:05.285Z,3.97
2022-11-27T11:39:40.637Z,3.13
2022-11-27T11:42:20.056Z,3.22
2022-11-27T11:44:52.896Z,3.85
2022-11-27T11:47:24.967Z,3.17
2022-11-27T11:49:53.332Z,3.17
2022-11-27T11:52:55.047Z,3.33
2022-11-27T11:55:43.412Z,3.35
2022-11-27T11:58:33.222Z,3.97
2022-11-27T12:01:27.923Z,3.40
2022-11-27T12:04:17.810Z,3.03
2022-11-27T12:06:57.548Z,3.35
2022-11-27T12:09:41.683Z,3.00
2022-11-27T12:12:40.284Z,3.40
2022-11-27T12:15:22.976Z,3.30
2022-11-27T12:18:10.914Z,3.63
2022-11-27T12:20:56.743Z,4.30
2022-11-27T12:23:30.398Z,3.17
2022-11-27T12:26:13.443Z,2.92
2022-11-27T12:29:32.715Z,3.15
2022-11-27T12:32:06.350Z,3.25
2022-11-27T12:34:34.736Z,3.15
2022-11-27T12:37:21.857Z,2.88
2022-11-27T12:40:08.122Z,3.10
2022-11-27T12:42:50.498Z,3.80
2022-11-27T12:45:33.426Z,2.83
2022-11-27T12:48:31.412Z,2.65
2022-11-27T12:51:02.757Z,3.13
2022-11-27T12:53:50.994Z,3.83
2022-11-27T12:56:33.814Z,3.83
2022-11-27T12:59:07.425Z,3.58
2022-11-27T13:01:44.466Z,3.50
2022-11-27T13:04:43.796Z,3.63
2022-11-27T13:07:24.582Z,3.65
2022-11-27T13:10:04.811Z,3.40
2022-11-27T13:13:00.235Z,3.03
2022-11-27T13:15:57.421Z,3.15
2022-11-27T13:18:38.818Z,3.08
2022-11-27T13:21:10.252Z,3.05
2022-11-27T13:23:38.108Z,3.58
2022-11-27T13:26:11.837Z,4.15
2022-11-27T13:28:43.707Z,3.80
2022-11-27T13:31:26.222Z,3.88
2022-11-27T13:34:02.279Z,3.83
2022-11-27T13:36:41.247Z,3.58
2022-11-27T13:39:33.643Z,3.90
2022-11-27T13:42:12.788Z,3.10
2022-11-27T13:44:53.809Z,3.53
2022-11-27T13:47:23.776Z,2.97
2022-11-27T13:50:15.644Z,2.75
2022-11-27T13:55:28.921Z,2.80
2022-11-27T13:57:58.607Z,3.03
2022-11-27T14:00:41.191Z,2.72
2022-11-27T14:03:21.564Z,2.97
2022-11-27T14:05:49.282Z,2.65
2022-11-27T14:08:21.981Z,2.53
2022-11-27T14:10:57.226Z,3.28
2022-11-27T14:13:54.439Z,3.30
2022-11-27T14:16:30.272Z,3.55
2022-11-27T14:19:19.805Z,2.92
2022-11-27T14:21:47.567Z,3.40
2022-11-27T14:24:33.514Z,3.35
2022-11-27T14:27:01.585Z,3.22
2022-11-27T14:29:32.351Z,2.92
2022-11-27T14:32:04.411Z,3.43
2022-11-27T14:34:33.449Z,3.33
2022-11-27T14:37:01.865Z,3.22
2022-11-27T14:39:33.449Z,3.08
2022-11-27T14:44:30.720Z,3.08
2022-11-27T14:47:04.138Z,3.22
2022-11-27T14:49:32.899Z,3.20
2022-11-27T14:52:06.566Z,3.42
2022-11-27T14:54:37.503Z,3.20
2022-11-27T14:57:05.883Z,3.13
2022-11-27T14:59:34.133Z,3.25
2022-11-27T15:02:06.686Z,3.53
2022-11-27T15:04:36.726Z,3.90
2022-11-27T15:07:29.646Z,3.22
2022-11-27T15:09:59.006Z,3.08
2022-11-27T15:12:42.924Z,3.30
2022-11-27T15:15:23.842Z,3.38
2022-11-27T15:17:55.801Z,3.15
2022-11-27T15:20:31.819Z,2.50
2022-11-27T15:23:00.572Z,3.30
2022-11-27T15:25:41.478Z,2.88
2022-11-27T15:28:27.571Z,3.40
2022-11-27T15:30:56.709Z,3.75
2022-11-27T15:33:33.070Z,4.05
2022-11-27T15:36:19.969Z,3.25
2022-11-27T15:38:51.194Z,3.45
2022-11-27T15:41:27.625Z,3.78
2022-11-27T15:43:56.857Z,3.75
2022-11-27T15:46:32.317Z,3.53
2022-11-27T15:49:00.380Z,3.20
2022-11-27T15:51:29.288Z,3.20
2022-11-27T15:53:56.993Z,3.53
2022-11-27T15:56:24.899Z,3.08
2022-11-27T15:58:52.582Z,2.83
2022-11-27T16:01:20.595Z,3.13
2022-11-27T16:03:50.479Z,3.17
2022-11-27T16:06:23.843Z,3.25
2022-11-27T16:08:59.502Z,3.13
2022-11-27T16:11:29.592Z,3.13
2022-11-27T16:13:57.792Z,3.03
2022-11-27T16:16:26.389Z,3.10
2022-11-27T16:19:00.113Z,3.65
2022-11-27T16:21:31.928Z,2.90
2022-11-27T16:24:01.844Z,3.25
2022-11-27T16:26:30.467Z,3.00
2022-11-27T16:28:58.567Z,3.42
2022-11-27T16:31:26.991Z,3.13
2022-11-27T16:33:55.090Z,3.42
2022-11-27T16:36:25.462Z,3.72
2022-11-27T16:38:54.967Z,3.03
2022-11-27T16:41:25.028Z,3.00
2022-11-27T16:43:56.789Z,3.20
2022-11-27T16:46:28.358Z,3.00
2022-11-27T16:49:00.980Z,3.38
2022-11-27T16:51:34.201Z,3.38
2022-11-27T16:54:04.292Z,2.97
2022-11-27T16:56:33.437Z,3.22
2022-11-27T16:59:11.987Z,2.97
2022-11-27T17:01:41.817Z,2.83
2022-11-27T17:04:15.081Z,3.15
2022-11-27T17:06:42.997Z,2.42
2022-11-27T17:09:11.144Z,3.15
2022-11-27T17:11:43.730Z,3.30
2022-11-27T17:14:11.900Z,3.45
2022-11-27T17:16:41.525Z,3.67
2022-11-27T17:19:13.379Z,2.83
2022-11-27T17:21:44.312Z,2.88
2022-11-27T17:24:15.617Z,3.50
2022-11-27T17:26:48.489Z,3.30
2022-11-27T17:29:19.244Z,3.15
2022-11-27T17:31:47.219Z,3.00
2022-11-27T17:34:16.121Z,3.90
2022-11-27T17:36:45.849Z,3.30
2022-11-27T17:39:15.204Z,3.38
2022-11-27T17:41:45.349Z,3.70
2022-11-27T17:44:13.379Z,3.03
2022-11-27T17:46:41.018Z,3.15
2022-11-27T17:49:09.475Z,3.35
2022-11-27T17:51:38.048Z,3.17
2022-11-27T17:54:08.300Z,3.75
2022-11-27T17:56:36.359Z,4.50
2022-11-27T17:59:05.217Z,3.50
2022-11-27T18:01:34.813Z,3.03
2022-11-27T18:04:05.636Z,3.85
2022-11-27T18:06:33.809Z,4.25
2022-11-27T18:09:02.053Z,3.90
2022-11-27T18:11:31.881Z,3.38
2022-11-27T18:14:01.490Z,3.30
2022-11-27T18:16:36.065Z,3.63
2022-11-27T18:19:07.533Z,4.30
2022-11-27T18:21:36.381Z,3.58
2022-11-27T18:27:09.660Z,4.25
2022-11-27T18:29:42.739Z,4.13
2022-11-27T18:32:14.776Z,4.05
2022-11-27T18:37:11.255Z,3.35
2022-11-27T18:39:40.113Z,3.88
2022-11-27T18:42:08.207Z,4.25
2022-11-27T18:44:41.183Z,5.13
2022-11-27T18:47:13.511Z,3.88
2022-11-27T18:49:42.979Z,3.97
2022-11-27T18:52:11.391Z,4.03
2022-11-27T18:54:39.558Z,4.43
2022-11-27T18:57:08.071Z,4.72
2022-11-27T18:59:35.916Z,3.80
2022-11-27T19:02:04.680Z,4.35
2022-11-27T19:04:34.696Z,4.40
2022-11-27T19:07:03.005Z,4.38
2022-11-27T19:09:30.908Z,4.78
2022-11-27T19:11:59.205Z,4.15
2022-11-27T19:14:27.392Z,4.70
2022-11-27T19:16:55.789Z,4.70
2022-11-27T19:22:13.420Z,4.63
2022-11-27T19:24:41.354Z,4.90
2022-11-27T19:27:09.416Z,4.13
2022-11-27T19:29:37.283Z,3.92
2022-11-27T19:32:05.235Z,4.30
2022-11-27T19:34:33.254Z,4.30
2022-11-27T19:37:01.073Z,3.92
2022-11-27T19:39:29.129Z,4.38
2022-11-27T19:41:58.141Z,3.78
2022-11-27T19:44:26.509Z,4.18
2022-11-27T19:46:54.767Z,4.38
2022-11-27T19:49:24.189Z,4.43
2022-11-27T19:51:52.245Z,4.72
2022-11-27T19:54:20.877Z,5.00
2022-11-27T19:56:50.659Z,5.15
2022-11-27T19:59:25.389Z,4.93
2022-11-27T20:01:55.034Z,4.45
2022-11-27T20:04:28.182Z,4.82
2022-11-27T20:06:56.282Z,4.25
2022-11-27T20:09:24.795Z,5.00
2022-11-27T20:11:52.876Z,4.70
2022-11-27T20:14:20.848Z,4.53
2022-11-27T20:16:48.957Z,5.18
2022-11-27T20:19:17.387Z,4.60
2022-11-27T20:21:45.975Z,4.32
2022-11-27T20:24:14.395Z,4.53
2022-11-27T20:26:43.011Z,4.88
2022-11-27T20:29:14.724Z,4.28
2022-11-27T20:31:45.244Z,4.35
2022-11-27T20:34:19.972Z,4.22
2022-11-27T20:36:48.480Z,4.50
2022-11-27T20:39:21.378Z,5.22
2022-11-27T20:41:51.822Z,4.47
2022-11-27T20:44:19.863Z,5.13
2022-11-27T20:46:47.950Z,4.60
2022-11-27T20:49:16.590Z,4.78
2022-11-27T20:51:46.851Z,4.78
2022-11-27T20:54:14.967Z,5.05
2022-11-27T20:56:46.818Z,4.22
2022-11-27T20:59:14.688Z,5.05
2022-11-27T21:01:42.808Z,4.63
2022-11-27T21:04:20.621Z,5.05
2022-11-27T21:06:49.101Z,4.25
2022-11-27T21:09:17.064Z,4.13
2022-11-27T21:11:45.669Z,4.55
2022-11-27T21:14:15.012Z,4.80
2022-11-27T21:16:48.765Z,4.03
2022-11-27T21:19:20.980Z,3.90
2022-11-27T21:21:51.065Z,3.92
2022-11-27T21:24:20.285Z,3.92
2022-11-27T21:26:49.295Z,3.92
2022-11-27T21:29:17.505Z,3.92
2022-11-27T21:31:47.362Z,4.30
2022-11-27T21:34:16.791Z,4.00
2022-11-27T21:36:45.474Z,4.28
2022-11-27T21:39:20.653Z,4.47
2022-11-27T21:41:50.662Z,4.22
2022-11-27T21:44:20.302Z,3.85
2022-11-27T21:46:48.678Z,4.80
2022-11-27T21:49:20.013Z,4.55
2022-11-27T21:51:54.412Z,4.40
2022-11-27T21:56:57.586Z,4.25
2022-11-27T21:59:27.835Z,5.05
2022-11-27T22:01:57.489Z,4.82
2022-11-27T22:04:25.878Z,3.92
2022-11-27T22:06:56.637Z,4.15
2022-11-27T22:09:24.466Z,3.85
2022-11-27T22:11:53.429Z,4.38
2022-11-27T22:14:21.480Z,4.30
2022-11-27T22:16:49.354Z,4.18
2022-11-27T22:19:17.864Z,4.25
2022-11-27T22:21:46.215Z,4.50
2022-11-27T22:24:18.983Z,4.82
2022-11-27T22:26:51.517Z,4.25
2022-11-27T22:29:20.504Z,4.38
2022-11-27T22:31:48.438Z,4.78
2022-11-27T22:34:17.331Z,4.53
2022-11-27T22:36:46.307Z,4.47
2022-11-27T22:39:14.505Z,4.88
2022-11-27T22:41:42.902Z,4.07
2022-11-27T22:44:16.771Z,4.55
2022-11-27T22:46:45.359Z,3.95
2022-11-27T22:49:15.027Z,4.03
2022-11-27T22:51:43.690Z,4.45
2022-11-27T22:54:13.936Z,4.63
2022-11-27T22:56:42.651Z,4.68
2022-11-27T22:59:31.689Z,5.30
2022-11-27T23:01:59.912Z,4.20
2022-11-27T23:04:28.184Z,4.68
2022-11-27T23:06:56.256Z,4.72
2022-11-27T23:09:24.502Z,4.53
2022-11-27T23:11:53.169Z,4.68
2022-11-27T23:14:21.078Z,4.03
2022-11-27T23:16:49.151Z,4.57
2022-11-27T23:19:17.310Z,4.55
2022-11-27T23:21:45.170Z,4.35
2022-11-27T23:24:15.463Z,4.40
2022-11-27T23:26:44.230Z,4.28
2022-11-27T23:29:12.303Z,4.13
2022-11-27T23:31:40.327Z,4.40
2022-11-27T23:34:13.694Z,3.40
2022-11-27T23:36:41.587Z,3.80
2022-11-27T23:39:11.087Z,3.83
2022-11-27T23:41:40.725Z,3.65
2022-11-27T23:44:08.856Z,3.60
2022-11-27T23:46:36.750Z,3.30
2022-11-27T23:49:04.796Z,3.53
2022-11-27T23:51:33.549Z,3.28
2022-11-27T23:54:02.109Z,3.17
2022-11-27T23:56:32.188Z,3.13
2022-11-27T23:59:00.811Z,3.38
